Time;durP1;ratioP1;P1;durP2;ratioP2;P2;SDS_P1;SDS_P2;PMS_P1;PMS_P2;Temp;Humidity;BMP_temperature;BMP_pressure;BME280_temperature;BME280_humidity;BME280_pressure;Samples;Min_cycle;Max_cycle;Signal;HPM_P1;HPM_P2
2023/06/26 00:01:39;;;;;;;6.72;3.53;;;;;;;-142.57;61.49;115900.28;5007281;28;20066;-82
2023/06/26 00:04:05;;;;;;;8.18;4.53;;;;;;;-142.57;61.68;115900.28;5029173;28;20446;-81
2023/06/26 00:06:30;;;;;;;7.95;3.63;;;;;;;-142.57;62.24;115900.28;5015481;28;20033;-82
2023/06/26 00:08:58;;;;;;;11.02;4.03;;;;;;;-142.57;62.07;115900.28;4995273;28;20088;-83
2023/06/26 00:11:26;;;;;;;7.28;4.20;;;;;;;-142.57;62.22;115900.28;5015910;28;20034;-80
2023/06/26 00:13:51;;;;;;;8.77;4.43;;;;;;;-142.57;61.89;115900.28;5014709;28;20526;-85
2023/06/26 00:16:17;;;;;;;5.40;3.85;;;;;;;-142.57;62.03;115900.28;5013593;28;20034;-83
2023/06/26 00:18:42;;;;;;;7.07;3.70;;;;;;;-142.57;61.29;115900.28;5013303;28;20502;-83
2023/06/26 00:21:08;;;;;;;5.35;3.42;;;;;;;-142.57;61.80;115900.28;5014210;28;20026;-82
2023/06/26 00:23:36;;;;;;;8.15;3.83;;;;;;;-142.57;61.87;115900.28;5014000;28;20519;-82
2023/06/26 00:26:03;;;;;;;6.28;4.20;;;;;;;-142.57;61.28;115900.28;5014404;28;20509;-78
2023/06/26 00:28:29;;;;;;;5.97;3.80;;;;;;;-142.57;60.88;115900.28;5013449;28;20040;-79
2023/06/26 00:30:56;;;;;;;8.05;3.55;;;;;;;-142.57;60.84;115900.28;5014411;28;20042;-81
2023/06/26 00:33:22;;;;;;;8.52;4.00;;;;;;;-142.57;60.92;115900.28;5014588;28;20048;-80
2023/06/26 00:35:47;;;;;;;12.38;4.07;;;;;;;-142.57;60.25;115900.28;5014299;28;20065;-81
2023/06/26 00:38:13;;;;;;;9.95;4.15;;;;;;;-142.57;61.05;115900.28;5013488;28;20121;-81
2023/06/26 00:40:38;;;;;;;5.75;4.20;;;;;;;-142.57;62.23;115900.28;5014721;28;20041;-81
2023/06/26 00:43:04;;;;;;;5.85;4.07;;;;;;;-142.57;62.95;115900.28;5014365;28;20084;-82
2023/06/26 00:45:29;;;;;;;6.75;3.95;;;;;;;-142.57;63.00;115900.28;4996566;28;20046;-82
2023/06/26 00:47:55;;;;;;;6.88;3.70;;;;;;;-142.57;62.85;115900.28;4996188;28;20040;-81
2023/06/26 00:50:20;;;;;;;10.98;3.38;;;;;;;-142.57;62.96;115900.28;5013751;28;20120;-81
2023/06/26 00:52:46;;;;;;;8.10;3.53;;;;;;;-142.57;63.96;115900.28;5014504;28;20037;-82
2023/06/26 00:55:12;;;;;;;9.48;4.22;;;;;;;-142.57;64.04;115900.28;4996689;28;20030;-80
2023/06/26 00:57:38;;;;;;;8.05;4.20;;;;;;;-142.57;63.63;115900.28;5013860;28;20467;-81
2023/06/26 01:00:04;;;;;;;7.70;4.22;;;;;;;-142.57;63.79;115900.28;4996205;28;20376;-83
2023/06/26 01:02:33;;;;;;;9.18;3.95;;;;;;;-142.57;64.18;115900.28;4996215;28;20046;-82
2023/06/26 01:05:03;;;;;;;8.75;4.20;;;;;;;-142.57;64.76;115900.28;4980933;28;20133;-81
2023/06/26 01:07:28;;;;;;;7.60;3.95;;;;;;;-142.57;64.09;115900.28;5014760;28;20049;-80
2023/06/26 01:09:54;;;;;;;5.53;3.70;;;;;;;-142.57;64.51;115900.28;5014889;28;20029;-82
2023/06/26 01:12:20;;;;;;;6.82;3.70;;;;;;;-142.57;63.14;115900.28;5015435;28;20494;-82
2023/06/26 01:14:48;;;;;;;7.65;3.67;;;;;;;-142.57;63.69;115900.28;4998434;28;20030;-82
2023/06/26 01:17:15;;;;;;;9.15;4.07;;;;;;;-142.57;63.71;115900.28;4981105;28;20129;-81
2023/06/26 01:19:42;;;;;;;15.15;3.53;;;;;;;-142.57;63.57;115900.28;5013013;28;20109;-83
2023/06/26 01:22:19;;;;;;;8.05;3.78;;;;;;;-142.57;63.31;115900.28;5021219;28;20058;-80
2023/06/26 01:25:12;;;;;;;8.18;4.07;;;;;;;-142.57;63.01;115900.28;5015733;28;20545;-82
2023/06/26 01:27:38;;;;;;;6.87;3.97;;;;;;;-142.57;62.95;115900.28;5015531;28;20026;-81
2023/06/26 01:30:05;;;;;;;7.68;3.47;;;;;;;-142.57;62.81;115900.28;5000800;28;20069;-80
2023/06/26 01:32:33;;;;;;;8.57;3.72;;;;;;;-142.57;62.55;115900.28;5013807;28;20448;-83
2023/06/26 01:35:01;;;;;;;10.50;4.03;;;;;;;-142.57;63.45;115900.28;5014677;28;20037;-83
2023/06/26 01:37:29;;;;;;;6.82;3.47;;;;;;;-142.57;63.94;115900.28;4997901;28;20088;-80
2023/06/26 01:39:54;;;;;;;6.63;3.28;;;;;;;-142.57;63.33;115900.28;5015267;28;20030;-83
2023/06/26 01:42:20;;;;;;;6.30;3.67;;;;;;;-142.57;63.29;115900.28;5014868;28;20045;-81
2023/06/26 01:44:46;;;;;;;6.63;3.22;;;;;;;-142.57;64.19;115900.28;5015551;28;20025;-80
2023/06/26 01:47:17;;;;;;;7.43;3.55;;;;;;;-142.57;63.66;115900.28;5014956;28;20034;-82
2023/06/26 01:49:52;;;;;;;5.20;3.72;;;;;;;-142.57;64.29;115900.28;5014370;28;20080;-83
2023/06/26 01:52:40;;;;;;;10.98;3.80;;;;;;;-142.57;65.13;115900.28;5017861;28;20038;-82
2023/06/26 01:55:11;;;;;;;9.75;4.10;;;;;;;-142.57;65.72;115900.28;5018886;28;20098;-84
2023/06/26 01:57:39;;;;;;;5.37;3.83;;;;;;;-142.57;65.96;115900.28;5001713;28;20042;-82
2023/06/26 02:00:07;;;;;;;7.88;4.00;;;;;;;-142.57;67.71;115900.28;5003010;28;20034;-82
2023/06/26 02:02:42;;;;;;;6.60;3.83;;;;;;;-142.57;67.41;115900.28;5014978;28;20025;-81
2023/06/26 02:05:07;;;;;;;6.38;4.18;;;;;;;-142.57;67.83;115900.28;4999548;28;20403;-79
2023/06/26 02:07:33;;;;;;;6.72;3.70;;;;;;;-142.57;68.29;115900.28;5013750;28;20044;-80
2023/06/26 02:09:58;;;;;;;6.10;3.75;;;;;;;-142.57;68.79;115900.28;5027838;28;20038;-82
2023/06/26 02:12:24;;;;;;;10.23;4.20;;;;;;;-142.57;69.45;115900.28;5026643;28;20064;-80
2023/06/26 02:14:51;;;;;;;5.47;3.97;;;;;;;-142.57;69.20;115900.28;5010317;28;20066;-83
2023/06/26 02:17:21;;;;;;;15.80;4.80;;;;;;;-142.57;69.45;115900.28;5006808;28;20126;-82
2023/06/26 02:19:47;;;;;;;9.20;4.22;;;;;;;-142.57;70.10;115900.28;5014960;28;20042;-84
2023/06/26 02:22:16;;;;;;;6.72;4.25;;;;;;;-142.57;70.37;115900.28;5014550;28;20030;-82
2023/06/26 02:24:43;;;;;;;10.38;4.32;;;;;;;-142.57;70.95;115900.28;4996183;28;20097;-80
2023/06/26 02:27:09;;;;;;;8.73;4.05;;;;;;;-142.57;71.26;115900.28;5014130;28;20042;-83
2023/06/26 02:29:36;;;;;;;9.73;4.35;;;;;;;-142.57;71.44;115900.28;5013749;28;20033;-81
2023/06/26 02:32:01;;;;;;;10.13;4.13;;;;;;;-142.57;71.27;115900.28;4980539;28;20065;-79
2023/06/26 02:34:27;;;;;;;7.43;4.47;;;;;;;-142.57;70.34;115900.28;5018991;28;20471;-81
2023/06/26 02:36:56;;;;;;;6.25;3.92;;;;;;;-142.57;70.41;115900.28;5028227;28;20038;-80
2023/06/26 02:39:22;;;;;;;8.73;3.92;;;;;;;-142.57;70.24;115900.28;5020207;28;20487;-81
2023/06/26 02:41:48;;;;;;;7.00;4.10;;;;;;;-142.57;70.56;115900.28;5017092;28;20464;-81
2023/06/26 02:44:14;;;;;;;8.10;4.00;;;;;;;-142.57;71.00;115900.28;4999412;28;20041;-81
2023/06/26 02:46:40;;;;;;;7.00;4.57;;;;;;;-142.57;72.08;115900.28;4999402;28;20026;-82
2023/06/26 02:49:07;;;;;;;6.50;4.30;;;;;;;-142.57;71.52;115900.28;4998821;28;20034;-81
2023/06/26 02:51:33;;;;;;;5.25;4.13;;;;;;;-142.57;72.00;115900.28;4999550;28;20097;-83
2023/06/26 02:54:02;;;;;;;5.20;3.78;;;;;;;-142.57;73.24;115900.28;4999139;28;20364;-83
2023/06/26 02:56:31;;;;;;;6.93;3.80;;;;;;;-142.57;72.31;115900.28;4999718;28;20033;-82
2023/06/26 02:58:58;;;;;;;13.25;4.25;;;;;;;-142.57;72.39;115900.28;4999060;28;20026;-82
2023/06/26 03:01:24;;;;;;;7.32;3.85;;;;;;;-142.57;71.86;115900.28;4995469;28;20045;-84
2023/06/26 03:03:50;;;;;;;8.40;4.30;;;;;;;-142.57;71.25;115900.28;4979124;28;20133;-83
2023/06/26 03:06:17;;;;;;;10.07;4.25;;;;;;;-142.57;70.75;115900.28;4995070;28;20030;-83
2023/06/26 03:08:43;;;;;;;9.35;4.53;;;;;;;-142.57;72.12;115900.28;4978776;28;20407;-85
2023/06/26 03:11:09;;;;;;;5.32;3.88;;;;;;;-142.57;72.56;115900.28;4994539;28;20034;-82
2023/06/26 03:13:38;;;;;;;7.55;4.10;;;;;;;-142.57;71.74;115900.28;4998484;28;20030;-83
2023/06/26 03:16:04;;;;;;;8.63;4.30;;;;;;;-142.57;72.64;115900.28;5015755;28;20476;-83
2023/06/26 03:18:30;;;;;;;7.60;4.18;;;;;;;-142.57;73.18;115900.28;4997969;28;20038;-82
2023/06/26 03:20:56;;;;;;;10.63;4.50;;;;;;;-142.57;73.34;115900.28;4997831;28;20026;-83
2023/06/26 03:23:23;;;;;;;15.68;4.50;;;;;;;-142.57;73.53;115900.28;4998043;28;20044;-85
2023/06/26 03:25:49;;;;;;;5.78;4.32;;;;;;;-142.57;73.74;115900.28;4998346;28;20045;-83
2023/06/26 03:28:26;;;;;;;12.82;4.30;;;;;;;-142.57;73.27;115900.28;4997636;28;20104;-83
2023/06/26 03:30:52;;;;;;;8.00;4.00;;;;;;;-142.57;73.74;115900.28;5015255;28;20073;-84
2023/06/26 03:33:17;;;;;;;8.10;4.03;;;;;;;-142.57;73.62;115900.28;4997424;28;20034;-84
2023/06/26 03:36:02;;;;;;;6.55;4.30;;;;;;;-142.57;73.30;115900.28;5015201;28;20373;-81
2023/06/26 03:38:28;;;;;;;6.43;4.03;;;;;;;-142.57;72.88;115900.28;4997390;28;20124;-82
2023/06/26 03:40:56;;;;;;;7.25;4.15;;;;;;;-142.57;72.19;115900.28;4997278;28;20030;-85
2023/06/26 03:43:21;;;;;;;5.45;4.00;;;;;;;-142.57;72.65;115900.28;4997171;28;20364;-84
2023/06/26 03:46:09;;;;;;;8.77;4.30;;;;;;;-142.57;73.47;115900.28;4997258;28;20088;-84
2023/06/26 03:48:34;;;;;;;6.28;3.92;;;;;;;-142.57;73.70;115900.28;4996933;28;20493;-83
2023/06/26 03:51:02;;;;;;;12.95;4.38;;;;;;;-142.57;73.16;115900.28;4997400;28;20403;-82
2023/06/26 03:53:27;;;;;;;8.90;3.95;;;;;;;-142.57;73.41;115900.28;4994669;28;20037;-82
2023/06/26 03:55:53;;;;;;;9.05;4.28;;;;;;;-142.57;73.41;115900.28;5002300;28;20040;-83
2023/06/26 03:58:21;;;;;;;12.93;4.60;;;;;;;-142.57;73.23;115900.28;4997644;28;20064;-83
2023/06/26 04:00:47;;;;;;;7.13;4.45;;;;;;;-142.57;74.33;115900.28;4997235;28;20038;-82
2023/06/26 04:03:13;;;;;;;7.68;4.05;;;;;;;-142.57;74.01;115900.28;4996946;28;20065;-85
2023/06/26 04:05:41;;;;;;;6.40;4.22;;;;;;;-142.57;74.50;115900.28;4996906;28;20048;-83
2023/06/26 04:08:06;;;;;;;6.80;3.45;;;;;;;-142.57;74.35;115900.28;5014786;28;20033;-84
2023/06/26 04:10:32;;;;;;;5.35;3.80;;;;;;;-142.57;73.95;115900.28;4997330;28;20026;-85
2023/06/26 04:12:57;;;;;;;6.25;4.28;;;;;;;-142.57;73.21;115900.28;4998538;28;20042;-84
2023/06/26 04:15:23;;;;;;;6.18;4.05;;;;;;;-142.57;72.63;115900.28;5014359;28;20137;-85
2023/06/26 04:17:48;;;;;;;6.75;4.07;;;;;;;-142.57;71.45;115900.28;5014485;28;20030;-83
2023/06/26 04:20:14;;;;;;;7.57;4.47;;;;;;;-142.57;70.71;115900.28;5014126;28;20361;-83
2023/06/26 04:22:40;;;;;;;6.40;3.55;;;;;;;-142.57;70.82;115900.28;5014522;28;20030;-83
2023/06/26 04:25:05;;;;;;;7.18;3.65;;;;;;;-142.57;70.07;115900.28;5014442;28;20046;-81
2023/06/26 04:27:31;;;;;;;5.50;3.78;;;;;;;-142.57;71.17;115900.28;5015185;28;20030;-83
2023/06/26 04:29:56;;;;;;;10.35;3.88;;;;;;;-142.57;71.59;115900.28;5013921;28;20632;-82
2023/06/26 04:32:23;;;;;;;6.90;3.75;;;;;;;-142.57;70.53;115900.28;5014249;28;20120;-84
2023/06/26 04:34:48;;;;;;;8.57;3.92;;;;;;;-142.57;71.67;115900.28;5014595;28;20115;-85
2023/06/26 04:37:17;;;;;;;7.28;4.20;;;;;;;-142.57;71.13;115900.28;5014479;28;20391;-83
2023/06/26 04:39:42;;;;;;;9.77;4.68;;;;;;;-142.57;71.07;115900.28;5013678;28;20032;-84
2023/06/26 04:42:09;;;;;;;10.57;4.13;;;;;;;-142.57;70.88;115900.28;5013763;28;20061;-84
2023/06/26 04:44:34;;;;;;;8.77;4.15;;;;;;;-142.57;70.80;115900.28;4996408;28;20041;-84
2023/06/26 04:47:00;;;;;;;7.60;3.90;;;;;;;-142.57;70.96;115900.28;5013731;28;20026;-85
2023/06/26 04:49:27;;;;;;;8.60;3.65;;;;;;;-142.57;71.40;115900.28;4995794;28;20537;-83
2023/06/26 04:51:54;;;;;;;6.50;4.15;;;;;;;-142.57;70.24;115900.28;5013423;28;20042;-83
2023/06/26 04:54:19;;;;;;;8.88;4.53;;;;;;;-142.57;70.52;115900.28;5014188;28;20029;-84
2023/06/26 04:56:47;;;;;;;6.28;4.10;;;;;;;-142.57;70.32;115900.28;4995802;28;20037;-84
2023/06/26 04:59:13;;;;;;;7.15;4.15;;;;;;;-142.57;70.13;115900.28;5012937;28;20069;-83
2023/06/26 05:01:39;;;;;;;7.50;4.50;;;;;;;-142.57;69.26;115900.28;5014176;28;20048;-85
2023/06/26 05:04:05;;;;;;;13.45;5.00;;;;;;;-142.57;69.45;115900.28;5015080;28;20383;-83
2023/06/26 05:06:31;;;;;;;16.27;4.50;;;;;;;-142.57;69.40;115900.28;5015055;28;20510;-83
2023/06/26 05:08:57;;;;;;;11.45;4.72;;;;;;;-142.57;69.24;115900.28;5013724;28;20037;-85
2023/06/26 05:11:23;;;;;;;7.32;4.63;;;;;;;-142.57;68.68;115900.28;5024802;28;20016;-85
2023/06/26 05:13:49;;;;;;;12.02;4.30;;;;;;;-142.57;68.25;115900.28;5011515;28;20121;-87
2023/06/26 05:16:15;;;;;;;10.90;4.55;;;;;;;-142.57;67.93;115900.28;5014237;28;20069;-84
2023/06/26 05:18:40;;;;;;;6.75;4.13;;;;;;;-142.57;67.90;115900.28;5013507;28;20033;-84
2023/06/26 05:21:06;;;;;;;9.98;4.90;;;;;;;-142.57;67.30;115900.28;4996304;28;20046;-83
2023/06/26 05:23:33;;;;;;;9.30;5.85;;;;;;;-142.57;66.75;115900.28;5013835;28;20040;-85
2023/06/26 05:25:59;;;;;;;45.25;6.65;;;;;;;-142.57;65.94;115900.28;5014086;28;20080;-85
2023/06/26 05:28:27;;;;;;;17.25;5.18;;;;;;;-142.57;65.32;115900.28;5013465;28;20041;-83
2023/06/26 05:30:53;;;;;;;24.80;5.30;;;;;;;-142.57;65.03;115900.28;5013694;28;20040;-84
2023/06/26 05:33:21;;;;;;;7.47;4.30;;;;;;;-142.57;65.31;115900.28;5014621;28;20034;-83
2023/06/26 05:35:48;;;;;;;6.68;4.30;;;;;;;-142.57;64.37;115900.28;5014138;28;20065;-84
2023/06/26 05:38:14;;;;;;;9.38;3.53;;;;;;;-142.57;63.14;115900.28;4981315;28;20089;-86
2023/06/26 05:40:40;;;;;;;8.43;4.28;;;;;;;-142.57;61.63;115900.28;5015807;28;20379;-90
2023/06/26 05:43:06;;;;;;;7.88;4.00;;;;;;;-142.57;61.26;115900.28;5017154;28;20113;-80
2023/06/26 05:45:32;;;;;;;7.68;4.55;;;;;;;-142.57;61.36;115900.28;5018380;28;20116;-81
2023/06/26 05:47:57;;;;;;;10.25;3.97;;;;;;;-142.57;61.13;115900.28;5017015;28;20026;-80
2023/06/26 05:50:25;;;;;;;9.30;4.03;;;;;;;-142.57;60.14;115900.28;5018796;28;20030;-85
2023/06/26 05:52:51;;;;;;;5.90;3.70;;;;;;;-142.57;59.52;115900.28;5016145;28;20065;-82
2023/06/26 05:55:20;;;;;;;9.18;3.88;;;;;;;-142.57;58.55;115900.28;5015605;28;20037;-81
2023/06/26 05:57:46;;;;;;;8.05;3.80;;;;;;;-142.57;58.31;115900.28;5015428;28;20038;-80
2023/06/26 06:00:12;;;;;;;18.92;4.47;;;;;;;-142.57;56.19;115900.28;5014079;28;20040;-79
2023/06/26 06:02:42;;;;;;;8.18;3.55;;;;;;;-142.57;55.64;115900.28;5016814;28;20060;-78
2023/06/26 06:05:09;;;;;;;14.38;4.38;;;;;;;-142.57;55.34;115900.28;5017826;28;20064;-79
2023/06/26 06:07:35;;;;;;;7.28;3.38;;;;;;;-142.57;54.87;115900.28;5019007;28;20038;-79
2023/06/26 06:10:03;;;;;;;8.23;3.78;;;;;;;-142.57;54.19;115900.28;5018200;28;20045;-81
2023/06/26 06:12:28;;;;;;;12.02;3.53;;;;;;;-142.57;53.85;115900.28;5018356;28;20036;-79
2023/06/26 06:14:55;;;;;;;15.40;4.25;;;;;;;-142.57;53.47;115900.28;5017731;28;20030;-81
2023/06/26 06:17:21;;;;;;;8.95;3.72;;;;;;;-142.57;50.78;115900.28;5000590;28;20042;-83
2023/06/26 06:19:46;;;;;;;11.50;3.90;;;;;;;-142.57;49.42;115900.28;5016843;28;20606;-80
2023/06/26 06:22:12;;;;;;;7.50;3.90;;;;;;;-142.57;48.99;115900.28;4999766;28;20039;-84
2023/06/26 06:24:37;;;;;;;9.38;4.07;;;;;;;-142.57;48.94;115900.28;5017488;28;20078;-85
2023/06/26 06:27:03;;;;;;;13.48;4.20;;;;;;;-142.57;48.23;115900.28;5002647;28;20506;-85
2023/06/26 06:29:29;;;;;;;11.43;4.15;;;;;;;-142.57;47.03;115900.28;5029263;28;20013;-82
2023/06/26 06:31:54;;;;;;;8.30;4.13;;;;;;;-142.57;45.41;115900.28;5020058;28;20057;-85
2023/06/26 06:34:20;;;;;;;8.48;3.65;;;;;;;-142.57;41.80;115900.28;5017183;28;20048;-83
2023/06/26 06:36:46;;;;;;;27.17;4.30;;;;;;;-142.57;40.78;115900.28;5017501;28;20415;-87
2023/06/26 06:39:11;;;;;;;12.43;4.03;;;;;;;-142.57;39.20;115900.28;5017966;28;20033;-87
2023/06/26 06:41:37;;;;;;;34.85;5.35;;;;;;;-142.57;39.01;115900.28;5019572;28;20114;-85
2023/06/26 06:44:05;;;;;;;20.17;4.03;;;;;;;-142.57;37.47;115900.28;5000756;28;20030;-87
2023/06/26 06:46:31;;;;;;;13.82;4.30;;;;;;;-142.57;37.76;115900.28;4967447;28;20030;-85
2023/06/26 06:48:56;;;;;;;10.30;4.03;;;;;;;-142.57;38.68;115900.28;5019163;28;20038;-89
2023/06/26 06:51:22;;;;;;;6.50;4.15;;;;;;;-142.57;39.05;115900.28;5017584;28;20573;-88
2023/06/26 06:53:49;;;;;;;10.93;4.72;;;;;;;-142.57;39.56;115900.28;5016535;28;20185;-87
2023/06/26 06:56:14;;;;;;;7.65;4.43;;;;;;;-142.57;38.70;115900.28;5017101;28;20105;-83
2023/06/26 06:58:42;;;;;;;8.73;3.80;;;;;;;-142.57;38.08;115900.28;5017757;28;20042;-85
2023/06/26 07:01:13;;;;;;;7.43;4.25;;;;;;;-142.57;36.57;115900.28;4982593;28;20414;-88
2023/06/26 07:03:38;;;;;;;16.13;4.80;;;;;;;-142.57;35.75;115900.28;5010810;28;20391;-85
2023/06/26 07:06:04;;;;;;;13.40;4.55;;;;;;;-142.57;36.35;115900.28;5015309;28;20040;-87
2023/06/26 07:08:31;;;;;;;5.85;3.78;;;;;;;-142.57;36.46;115900.28;5016502;28;20479;-83
2023/06/26 07:10:56;;;;;;;9.93;3.88;;;;;;;-142.57;35.89;115900.28;5015975;28;20034;-83
2023/06/26 07:13:22;;;;;;;7.50;4.00;;;;;;;-142.57;38.26;115900.28;5015867;28;20037;-85
2023/06/26 07:15:48;;;;;;;16.38;3.92;;;;;;;-142.57;36.44;115900.28;5015969;28;20030;-84
2023/06/26 07:18:14;;;;;;;14.25;4.70;;;;;;;-142.57;35.41;115900.28;5015601;28;20033;-85
2023/06/26 07:20:40;;;;;;;8.65;4.32;;;;;;;-142.57;34.74;115900.28;5015960;28;20034;-85
2023/06/26 07:23:05;;;;;;;14.05;4.60;;;;;;;-142.57;35.32;115900.28;5015841;28;20455;-85
2023/06/26 07:25:31;;;;;;;7.55;3.80;;;;;;;-142.57;34.94;115900.28;5015726;28;20038;-83
2023/06/26 07:27:56;;;;;;;13.48;4.68;;;;;;;-142.57;33.52;115900.28;4998217;28;20034;-84
2023/06/26 07:30:22;;;;;;;15.88;5.35;;;;;;;-142.57;33.71;115900.28;5015727;28;20030;-84
2023/06/26 07:32:48;;;;;;;9.68;4.45;;;;;;;-142.57;36.11;115900.28;4998383;28;20049;-86
2023/06/26 07:35:13;;;;;;;12.30;4.88;;;;;;;-142.57;35.84;115900.28;5015341;28;20037;-83
2023/06/26 07:37:41;;;;;;;9.00;4.55;;;;;;;-142.57;35.76;115900.28;4997988;28;20038;-83
2023/06/26 07:40:07;;;;;;;7.57;4.35;;;;;;;-142.57;35.43;115900.28;5015086;28;20445;-83
2023/06/26 07:42:36;;;;;;;11.45;4.38;;;;;;;-142.57;35.54;115900.28;5014539;28;20025;-84
2023/06/26 07:45:01;;;;;;;7.68;4.25;;;;;;;-142.57;35.33;115900.28;5018722;28;20105;-83
2023/06/26 07:47:27;;;;;;;6.97;3.72;;;;;;;-142.57;34.99;115900.28;5035205;28;20025;-84
2023/06/26 07:49:53;;;;;;;8.90;3.67;;;;;;;-142.57;33.16;115900.28;4998545;28;20084;-85
2023/06/26 07:52:19;;;;;;;11.57;4.50;;;;;;;-142.57;34.10;115900.28;5014449;28;20044;-87
2023/06/26 07:54:45;;;;;;;8.75;4.80;;;;;;;-142.57;35.36;115900.28;5014688;28;20509;-83
2023/06/26 07:57:12;;;;;;;8.80;4.00;;;;;;;-142.57;35.68;115900.28;5014689;28;20038;-83
2023/06/26 07:59:38;;;;;;;8.20;3.38;;;;;;;-142.57;35.32;115900.28;5014620;28;20491;-85
2023/06/26 08:02:10;;;;;;;8.57;3.55;;;;;;;-142.57;33.91;115900.28;4998145;28;20072;-83
2023/06/26 08:04:35;;;;;;;;;;;;;;;-142.57;33.51;115900.28;5000191;28;20030;-83
2023/06/26 08:07:01;;;;;;;8.57;3.55;;;;;;;-142.57;32.41;115900.28;4998219;28;19913;-82
2023/06/26 08:09:28;;;;;;;5.00;3.45;;;;;;;-142.57;32.20;115900.28;5014924;28;20048;-83
2023/06/26 08:11:54;;;;;;;7.85;4.30;;;;;;;-142.57;32.26;115900.28;4981256;28;20126;-84
2023/06/26 08:14:20;;;;;;;13.80;3.83;;;;;;;-142.57;31.98;115900.28;5014686;28;20594;-84
2023/06/26 08:16:46;;;;;;;8.55;3.95;;;;;;;-142.57;32.66;115900.28;5014507;28;20061;-85
2023/06/26 08:19:13;;;;;;;12.50;4.00;;;;;;;-142.57;31.92;115900.28;5014642;28;20092;-88
2023/06/26 08:21:40;;;;;;;8.02;3.67;;;;;;;-142.57;31.82;115900.28;4998066;28;20042;-86
2023/06/26 08:24:05;;;;;;;9.77;3.78;;;;;;;-142.57;30.41;115900.28;5014764;28;20099;-85
2023/06/26 08:26:31;;;;;;;10.70;3.30;;;;;;;-142.57;30.50;115900.28;5014198;28;20030;-84
2023/06/26 08:28:56;;;;;;;12.10;4.18;;;;;;;-142.57;30.58;115900.28;5014222;28;20041;-85
2023/06/26 08:31:22;;;;;;;6.75;3.38;;;;;;;-142.57;30.30;115900.28;5013550;28;20034;-86
2023/06/26 08:33:47;;;;;;;12.30;3.92;;;;;;;-142.57;30.75;115900.28;5013923;28;20037;-84
2023/06/26 08:36:13;;;;;;;7.05;3.75;;;;;;;-142.57;30.54;115900.28;5014199;28;20026;-85
2023/06/26 08:38:41;;;;;;;7.68;3.42;;;;;;;-142.57;28.92;115900.28;5014901;28;20120;-86
2023/06/26 08:41:08;;;;;;;7.90;4.03;;;;;;;-142.57;28.68;115900.28;5014539;28;20034;-84
2023/06/26 08:43:35;;;;;;;10.10;3.60;;;;;;;-142.57;29.33;115900.28;5013898;28;20026;-85
2023/06/26 08:46:00;;;;;;;7.95;3.58;;;;;;;-142.57;29.74;115900.28;5013848;28;20034;-84
2023/06/26 08:48:28;;;;;;;15.57;3.30;;;;;;;-142.57;29.29;115900.28;5013590;28;20026;-86
2023/06/26 08:50:55;;;;;;;7.38;3.42;;;;;;;-142.57;29.58;115900.28;5012877;28;20092;-80
2023/06/26 08:53:56;;;;;;;7.10;3.33;;;;;;;-142.57;28.30;115900.28;4994326;28;20117;-81
2023/06/26 08:56:23;;;;;;;7.38;3.55;;;;;;;-142.57;28.60;115900.28;5009012;28;20045;-82
2023/06/26 08:58:49;;;;;;;7.80;3.58;;;;;;;-142.57;29.06;115900.28;5013761;28;20030;-85
2023/06/26 09:01:15;;;;;;;5.43;3.28;;;;;;;-142.57;28.45;115900.28;5015742;28;20407;-79
2023/06/26 09:03:43;;;;;;;5.53;3.63;;;;;;;-142.57;27.83;115900.28;5030342;28;20050;-82
2023/06/26 09:06:10;;;;;;;6.18;3.30;;;;;;;-142.57;27.76;115900.28;5019197;28;20040;-85
2023/06/26 09:08:35;;;;;;;10.48;3.40;;;;;;;-142.57;27.18;115900.28;4996091;28;20817;-78
2023/06/26 09:11:01;;;;;;;6.30;3.00;;;;;;;-142.57;26.82;115900.28;5013248;28;20072;-85
2023/06/26 09:13:29;;;;;;;8.73;3.35;;;;;;;-142.57;26.40;115900.28;5013204;28;20026;-86
2023/06/26 09:15:55;;;;;;;6.93;3.42;;;;;;;-142.57;26.92;115900.28;4995911;28;20053;-83
2023/06/26 09:18:21;;;;;;;8.35;3.72;;;;;;;-142.57;26.67;115900.28;5013312;28;20480;-83
2023/06/26 09:20:48;;;;;;;9.48;3.03;;;;;;;-142.57;26.84;115900.28;5013356;28;20038;-84
2023/06/26 09:23:14;;;;;;;9.98;3.33;;;;;;;-142.57;25.73;115900.28;5013389;28;20030;-85
2023/06/26 09:25:40;;;;;;;5.45;3.13;;;;;;;-142.57;26.00;115900.28;5013453;28;20483;-86
2023/06/26 09:28:08;;;;;;;4.75;2.78;;;;;;;-142.57;26.05;115900.28;5013242;28;20491;-83
2023/06/26 09:30:33;;;;;;;6.40;2.95;;;;;;;-142.57;26.19;115900.28;5013510;28;20494;-87
2023/06/26 09:33:16;;;;;;;5.07;3.17;;;;;;;-142.57;25.89;115900.28;5013564;28;20033;-82
2023/06/26 09:35:43;;;;;;;6.30;3.20;;;;;;;-142.57;26.50;115900.28;5013048;28;20468;-83
2023/06/26 09:38:09;;;;;;;7.70;3.50;;;;;;;-142.57;26.65;115900.28;5013366;28;20042;-85
2023/06/26 09:40:35;;;;;;;5.28;2.97;;;;;;;-142.57;26.94;115900.28;5013143;28;20113;-82
2023/06/26 09:43:05;;;;;;;3.92;3.10;;;;;;;-142.57;26.35;115900.28;5013844;28;20127;-86
2023/06/26 09:45:36;;;;;;;7.40;3.60;;;;;;;-142.57;26.70;115900.28;5013862;28;20389;-83
2023/06/26 09:48:03;;;;;;;6.28;3.22;;;;;;;-142.57;26.67;115900.28;4995878;28;20034;-83
2023/06/26 09:50:31;;;;;;;5.38;3.05;;;;;;;-142.57;26.92;115900.28;5013368;28;20030;-82
2023/06/26 09:52:57;;;;;;;4.35;2.70;;;;;;;-142.57;26.56;115900.28;5013203;28;20030;-82
2023/06/26 09:55:23;;;;;;;5.97;3.00;;;;;;;-142.57;26.98;115900.28;5012748;28;20502;-83
2023/06/26 09:57:50;;;;;;;13.82;3.35;;;;;;;-142.57;27.08;115900.28;5012266;28;20045;-80
2023/06/26 10:00:17;;;;;;;8.48;3.33;;;;;;;-142.57;27.03;115900.28;5013086;28;20491;-84
2023/06/26 10:02:43;;;;;;;5.40;3.53;;;;;;;-142.57;27.21;115900.28;5012866;28;20026;-84
2023/06/26 10:05:09;;;;;;;9.32;3.63;;;;;;;-142.57;27.24;115900.28;5012732;28;20049;-84
2023/06/26 10:07:35;;;;;;;11.77;3.38;;;;;;;-142.57;26.89;115900.28;5013043;28;20038;-81
2023/06/26 10:10:03;;;;;;;3.88;3.20;;;;;;;-142.57;27.71;115900.28;4995256;28;20050;-82
2023/06/26 10:12:30;;;;;;;5.47;3.30;;;;;;;-142.57;27.71;115900.28;5012565;28;20423;-84
2023/06/26 10:14:57;;;;;;;11.43;3.20;;;;;;;-142.57;27.63;115900.28;4995416;28;20025;-82
2023/06/26 10:17:27;;;;;;;6.35;3.20;;;;;;;-142.57;27.11;115900.28;5013036;28;20038;-82
2023/06/26 10:19:56;;;;;;;5.90;3.08;;;;;;;-142.57;26.22;115900.28;5021377;28;20037;-80
2023/06/26 10:22:27;;;;;;;5.15;3.20;;;;;;;-142.57;26.27;115900.28;5023122;28;20033;-83
2023/06/26 10:24:58;;;;;;;18.58;3.42;;;;;;;-142.57;26.57;115900.28;5012721;28;20145;-82
2023/06/26 10:27:28;;;;;;;4.45;3.00;;;;;;;-142.57;26.61;115900.28;5013076;28;20038;-84
2023/06/26 10:30:00;;;;;;;7.40;3.08;;;;;;;-142.57;26.12;115900.28;4995331;28;20046;-84
2023/06/26 10:32:27;;;;;;;7.55;2.88;;;;;;;-142.57;25.96;115900.28;5012904;28;20038;-82
2023/06/26 10:34:55;;;;;;;13.90;3.40;;;;;;;-142.57;26.54;115900.28;5013123;28;20481;-86
2023/06/26 10:37:20;;;;;;;5.85;3.35;;;;;;;-142.57;27.00;115900.28;5013549;28;20070;-84
2023/06/26 10:39:47;;;;;;;7.82;3.20;;;;;;;-142.57;26.61;115900.28;4996163;28;20080;-83
2023/06/26 10:42:13;;;;;;;7.57;3.35;;;;;;;-142.57;26.57;115900.28;5012804;28;20041;-84
2023/06/26 10:44:44;;;;;;;5.85;3.20;;;;;;;-142.57;26.21;115900.28;5013317;28;20037;-83
2023/06/26 10:47:11;;;;;;;7.40;4.00;;;;;;;-142.57;26.18;115900.28;5012516;28;20056;-82
2023/06/26 10:49:39;;;;;;;6.43;3.17;;;;;;;-142.57;26.57;115900.28;5012876;28;20092;-86
2023/06/26 10:52:05;;;;;;;8.48;3.17;;;;;;;-142.57;26.40;115900.28;4995347;28;20114;-84
2023/06/26 10:54:32;;;;;;;6.97;3.47;;;;;;;-142.57;26.53;115900.28;5015338;28;20444;-85
2023/06/26 10:56:58;;;;;;;6.22;3.10;;;;;;;-142.57;26.28;115900.28;5013065;28;20026;-83
2023/06/26 10:59:25;;;;;;;6.97;3.60;;;;;;;-142.57;26.16;115900.28;4997863;28;20041;-84
2023/06/26 11:01:58;;;;;;;8.00;3.30;;;;;;;-142.57;26.21;115900.28;5001215;28;20042;-83
2023/06/26 11:04:53;;;;;;;6.18;3.42;;;;;;;-142.57;26.27;115900.28;5013852;28;20129;-84
2023/06/26 11:07:23;;;;;;;5.53;3.42;;;;;;;-142.57;25.81;115900.28;5014820;28;20034;-84